createdAt,value
2017-07-10T00:00:12.209Z,0
2017-07-10T00:01:12.261Z,0
2017-07-10T00:02:12.301Z,0
2017-07-10T00:03:12.333Z,0
2017-07-10T00:04:12.382Z,0
2017-07-10T00:05:12.426Z,0
2017-07-10T00:06:12.465Z,0
2017-07-10T00:07:12.498Z,0
2017-07-10T00:08:12.549Z,0
2017-07-10T00:09:12.592Z,0
2017-07-10T00:10:12.636Z,0
2017-07-10T00:11:12.660Z,0
2017-07-10T00:12:12.710Z,0
2017-07-10T00:13:12.755Z,0
2017-07-10T00:14:12.789Z,0
2017-07-10T00:15:12.835Z,0
2017-07-10T00:16:12.867Z,0
2017-07-10T00:17:12.921Z,0
2017-07-10T00:18:12.961Z,0
2017-07-10T00:19:13.003Z,0
2017-07-10T00:20:13.030Z,0
2017-07-10T00:21:13.093Z,0
2017-07-10T00:22:13.114Z,0
2017-07-10T00:23:13.165Z,0
2017-07-10T00:24:13.208Z,0
2017-07-10T00:25:13.239Z,0
2017-07-10T00:26:13.288Z,0
2017-07-10T00:27:13.324Z,0
2017-07-10T00:28:13.365Z,0
2017-07-10T00:29:13.411Z,0
2017-07-10T00:30:13.443Z,0
2017-07-10T00:31:13.495Z,0
2017-07-10T00:32:13.536Z,0
2017-07-10T00:33:13.579Z,0
2017-07-10T00:34:13.606Z,0
2017-07-10T00:35:13.661Z,0
2017-07-10T00:36:13.699Z,0
2017-07-10T00:37:13.743Z,0
2017-07-10T00:38:13.771Z,0
2017-07-10T00:39:13.822Z,0
2017-07-10T00:40:13.867Z,0
2017-07-10T00:41:13.895Z,0
2017-07-10T00:42:13.981Z,0
2017-07-10T00:43:13.986Z,0
2017-07-10T00:44:14.017Z,0
2017-07-10T00:45:14.070Z,0
2017-07-10T00:46:14.113Z,0
2017-07-10T00:47:14.141Z,0
2017-07-10T00:48:14.193Z,0
2017-07-10T00:49:14.239Z,0
2017-07-10T00:50:14.275Z,0
2017-07-10T00:51:14.307Z,0
2017-07-10T00:52:14.355Z,0
2017-07-10T00:53:14.386Z,0
2017-07-10T00:54:14.442Z,0
2017-07-10T00:55:14.479Z,0
2017-07-10T00:56:14.522Z,0
2017-07-10T00:57:14.550Z,0
2017-07-10T00:58:14.594Z,0
2017-07-10T00:59:14.630Z,0
2017-07-10T01:00:14.672Z,0
2017-07-10T01:01:14.725Z,0
2017-07-10T01:02:14.754Z,0
2017-07-10T01:03:14.811Z,0
2017-07-10T01:04:14.848Z,0
2017-07-10T01:05:15.205Z,0
2017-07-10T01:06:14.932Z,0
2017-07-10T01:07:14.971Z,0
2017-07-10T01:08:15.001Z,0
2017-07-10T01:09:15.058Z,0
2017-07-10T01:10:15.091Z,0
2017-07-10T01:11:15.124Z,0
2017-07-10T01:12:15.179Z,0
2017-07-10T01:13:15.217Z,0
2017-07-10T01:14:15.255Z,0
2017-07-10T01:15:15.288Z,0
2017-07-10T01:16:15.342Z,0
2017-07-10T01:17:15.367Z,0
2017-07-10T01:18:15.418Z,0
2017-07-10T01:19:15.459Z,0
2017-07-10T01:20:15.501Z,0
2017-07-10T01:21:15.542Z,0
2017-07-10T01:22:15.571Z,0
2017-07-10T01:23:15.623Z,0
2017-07-10T01:24:15.656Z,0
2017-07-10T01:25:15.703Z,0
2017-07-10T01:26:15.735Z,0
2017-07-10T01:27:15.787Z,0
2017-07-10T01:28:15.825Z,0
2017-07-10T01:29:15.859Z,0
2017-07-10T01:30:15.910Z,0
2017-07-10T01:31:15.940Z,0
2017-07-10T01:32:15.989Z,0
2017-07-10T01:33:16.019Z,0
2017-07-10T01:34:16.069Z,0
2017-07-10T01:35:16.110Z,0
2017-07-10T01:36:16.143Z,0
2017-07-10T01:37:16.194Z,0
2017-07-10T01:38:16.223Z,0
2017-07-10T01:39:16.275Z,0
2017-07-10T01:40:16.313Z,0
2017-07-10T01:41:16.357Z,0
2017-07-10T01:42:16.392Z,0
2017-07-10T01:43:16.431Z,0
2017-07-10T01:44:16.478Z,0
2017-07-10T01:45:16.508Z,0
2017-07-10T01:46:16.556Z,0
2017-07-10T01:47:16.601Z,0
2017-07-10T01:48:16.631Z,0
2017-07-10T01:49:16.679Z,0
2017-07-10T01:50:16.712Z,0
2017-07-10T01:51:16.884Z,0
2017-07-10T01:52:16.802Z,0
2017-07-10T01:53:16.832Z,0
2017-07-10T01:54:16.884Z,0
2017-07-10T01:55:16.927Z,0
2017-07-10T01:56:16.956Z,0
2017-07-10T01:57:17.004Z,0
2017-07-10T01:58:17.046Z,0
2017-07-10T01:59:17.088Z,0
2017-07-10T02:00:17.113Z,0
2017-07-10T02:01:17.169Z,0
2017-07-10T02:02:17.520Z,0
2017-07-10T02:03:17.249Z,0
2017-07-10T02:04:17.280Z,0
2017-07-10T02:05:17.332Z,0
2017-07-10T02:06:17.371Z,0
2017-07-10T02:07:17.402Z,0
2017-07-10T02:08:17.453Z,0
2017-07-10T02:09:17.494Z,0
2017-07-10T02:10:17.532Z,0
2017-07-10T02:11:17.573Z,0
2017-07-10T02:12:17.602Z,0
2017-07-10T02:13:17.642Z,0
2017-07-10T02:14:18.002Z,0
2017-07-10T02:15:17.734Z,0
2017-07-10T02:16:17.776Z,0
2017-07-10T02:17:17.807Z,0
2017-07-10T02:18:17.856Z,0
2017-07-10T02:19:17.885Z,0
2017-07-10T02:20:17.935Z,0
2017-07-10T02:21:17.969Z,4
2017-07-10T02:22:18.017Z,4
2017-07-10T02:23:18.049Z,4
2017-07-10T02:24:18.090Z,0
2017-07-10T02:25:18.139Z,0
2017-07-10T02:26:18.178Z,4
2017-07-10T02:27:18.223Z,4
2017-07-10T02:28:18.254Z,4
2017-07-10T02:29:18.301Z,4
2017-07-10T02:30:18.328Z,4
2017-07-10T02:31:18.372Z,4
2017-07-10T02:32:18.423Z,4
2017-07-10T02:33:18.462Z,8
2017-07-10T02:34:18.490Z,4
2017-07-10T02:35:18.542Z,8
2017-07-10T02:36:18.585Z,8
2017-07-10T02:37:18.611Z,12
2017-07-10T02:38:18.662Z,12
2017-07-10T02:39:18.692Z,12
2017-07-10T02:40:18.745Z,12
2017-07-10T02:41:18.784Z,16
2017-07-10T02:42:18.818Z,16
2017-07-10T02:43:19.178Z,20
2017-07-10T02:44:18.904Z,24
2017-07-10T02:45:18.937Z,24
2017-07-10T02:46:18.985Z,32
2017-07-10T02:47:19.030Z,32
2017-07-10T02:48:19.060Z,36
2017-07-10T02:49:19.106Z,40
2017-07-10T02:50:19.147Z,44
2017-07-10T02:51:19.183Z,52
2017-07-10T02:52:19.228Z,52
2017-07-10T02:53:19.268Z,60
2017-07-10T02:54:19.300Z,64
2017-07-10T02:55:19.350Z,68
2017-07-10T02:56:19.380Z,72
2017-07-10T02:57:19.430Z,80
2017-07-10T02:58:19.465Z,84
2017-07-10T02:59:19.499Z,92
2017-07-10T03:00:19.552Z,96
2017-07-10T03:01:19.592Z,108
2017-07-10T03:02:19.660Z,112
2017-07-10T03:03:19.673Z,124
2017-07-10T03:04:19.703Z,128
2017-07-10T03:05:19.744Z,140
2017-07-10T03:06:19.784Z,148
2017-07-10T03:07:19.834Z,156
2017-07-10T03:08:19.863Z,168
2017-07-10T03:09:19.903Z,184
2017-07-10T03:10:19.956Z,196
2017-07-10T03:11:19.997Z,212
2017-07-10T03:12:20.023Z,228
2017-07-10T03:13:20.068Z,240
2017-07-10T03:14:20.116Z,248
2017-07-10T03:15:20.146Z,252
2017-07-10T03:16:20.199Z,256
2017-07-10T03:17:20.226Z,256
2017-07-10T03:18:20.278Z,264
2017-07-10T03:19:20.309Z,272
2017-07-10T03:20:20.359Z,280
2017-07-10T03:21:20.387Z,292
2017-07-10T03:22:20.438Z,300
2017-07-10T03:23:20.481Z,308
2017-07-10T03:24:20.509Z,308
2017-07-10T03:25:20.561Z,304
2017-07-10T03:26:20.589Z,292
2017-07-10T03:27:20.642Z,272
2017-07-10T03:28:20.682Z,260
2017-07-10T03:29:20.712Z,252
2017-07-10T03:30:21.080Z,252
2017-07-10T03:31:20.804Z,264
2017-07-10T03:32:20.837Z,280
2017-07-10T03:33:20.887Z,296
2017-07-10T03:34:20.915Z,312
2017-07-10T03:35:20.964Z,324
2017-07-10T03:36:20.996Z,324
2017-07-10T03:37:21.046Z,328
2017-07-10T03:38:21.087Z,332
2017-07-10T03:39:21.115Z,336
2017-07-10T03:40:21.166Z,348
2017-07-10T03:41:21.210Z,360
2017-07-10T03:42:21.249Z,384
2017-07-10T03:43:21.284Z,412
2017-07-10T03:44:21.318Z,448
2017-07-10T03:45:21.370Z,488
2017-07-10T03:46:21.412Z,528
2017-07-10T03:47:21.438Z,564
2017-07-10T03:48:21.493Z,600
2017-07-10T03:49:21.523Z,632
2017-07-10T03:50:21.571Z,664
2017-07-10T03:51:21.614Z,696
2017-07-10T03:52:21.653Z,728
2017-07-10T03:53:21.694Z,756
2017-07-10T03:54:21.724Z,776
2017-07-10T03:55:21.775Z,792
2017-07-10T03:56:21.822Z,804
2017-07-10T03:57:21.857Z,812
2017-07-10T03:58:21.894Z,820
2017-07-10T03:59:21.938Z,832
2017-07-10T04:00:21.978Z,852
2017-07-10T04:01:22.019Z,876
2017-07-10T04:02:22.362Z,904
2017-07-10T04:03:22.101Z,936
2017-07-10T04:04:22.130Z,964
2017-07-10T04:05:22.171Z,984
2017-07-10T04:06:22.223Z,996
2017-07-10T04:07:22.251Z,1004
2017-07-10T04:08:22.304Z,1020
2017-07-10T04:09:22.345Z,1048
2017-07-10T04:10:22.375Z,1076
2017-07-10T04:11:22.426Z,1104
2017-07-10T04:12:22.467Z,1136
2017-07-10T04:13:22.505Z,1164
2017-07-10T04:14:22.538Z,1188
2017-07-10T04:15:22.591Z,1212
2017-07-10T04:16:22.618Z,1260
2017-07-10T04:17:22.657Z,1320
2017-07-10T04:18:22.702Z,1404
2017-07-10T04:19:22.752Z,1512
2017-07-10T04:20:22.792Z,1620
2017-07-10T04:21:22.821Z,1728
2017-07-10T04:22:22.873Z,1832
2017-07-10T04:23:22.912Z,1936
2017-07-10T04:24:22.954Z,2032
2017-07-10T04:25:22.985Z,2128
2017-07-10T04:26:23.038Z,2244
2017-07-10T04:27:23.063Z,2376
2017-07-10T04:28:23.113Z,2512
2017-07-10T04:29:23.159Z,2652
2017-07-10T04:30:23.202Z,2816
2017-07-10T04:31:23.229Z,3008
2017-07-10T04:32:23.282Z,3180
2017-07-10T04:33:23.321Z,3336
2017-07-10T04:34:23.349Z,3508
2017-07-10T04:35:23.393Z,3736
2017-07-10T04:36:23.440Z,4000
2017-07-10T04:37:23.484Z,4276
2017-07-10T04:38:23.515Z,5124
2017-07-10T04:39:23.565Z,6484
2017-07-10T04:40:23.599Z,5396
2017-07-10T04:41:23.637Z,5548
2017-07-10T04:42:23.690Z,6984
2017-07-10T04:43:23.725Z,6232
2017-07-10T04:44:23.762Z,5964
2017-07-10T04:45:23.815Z,6288
2017-07-10T04:46:23.855Z,7712
2017-07-10T04:47:23.889Z,8232
2017-07-10T04:48:23.934Z,7240
2017-07-10T04:49:23.979Z,6408
2017-07-10T04:50:24.012Z,5844
2017-07-10T04:51:24.061Z,5332
2017-07-10T04:52:24.103Z,5060
2017-07-10T04:53:24.146Z,4820
2017-07-10T04:54:24.174Z,4624
2017-07-10T04:55:24.233Z,4492
2017-07-10T04:56:24.270Z,4380
2017-07-10T04:57:24.299Z,4716
2017-07-10T04:58:24.350Z,4684
2017-07-10T04:59:24.452Z,4488
2017-07-10T05:00:24.423Z,4576
2017-07-10T05:01:24.478Z,4724
2017-07-10T05:02:24.519Z,4872
2017-07-10T05:03:24.551Z,5036
2017-07-10T05:04:24.596Z,5256
2017-07-10T05:05:24.645Z,5536
2017-07-10T05:06:24.689Z,5896
2017-07-10T05:07:24.737Z,6148
2017-07-10T05:08:24.770Z,6332
2017-07-10T05:09:24.803Z,6472
2017-07-10T05:10:24.854Z,6620
2017-07-10T05:11:24.885Z,6916
2017-07-10T05:12:25.160Z,7244
2017-07-10T05:13:24.980Z,7480
2017-07-10T05:14:25.018Z,7756
2017-07-10T05:15:25.056Z,8100
2017-07-10T05:16:25.094Z,8404
2017-07-10T05:17:25.145Z,8512
2017-07-10T05:18:25.182Z,9364
2017-07-10T05:19:25.229Z,9132
2017-07-10T05:20:25.261Z,8896
2017-07-10T05:21:25.314Z,7704
2017-07-10T05:22:25.355Z,6556
2017-07-10T05:23:25.388Z,5848
2017-07-10T05:24:25.440Z,5320
2017-07-10T05:25:25.472Z,4792
2017-07-10T05:26:25.526Z,4316
2017-07-10T05:27:25.566Z,3864
2017-07-10T05:28:25.610Z,3444
2017-07-10T05:29:25.648Z,3064
2017-07-10T05:30:25.692Z,2736
2017-07-10T05:31:25.737Z,2444
2017-07-10T05:32:25.776Z,2148
2017-07-10T05:33:25.820Z,1868
2017-07-10T05:34:25.851Z,1612
2017-07-10T05:35:25.903Z,1412
2017-07-10T05:36:25.943Z,1276
2017-07-10T05:37:26.036Z,1192
2017-07-10T05:38:26.026Z,1156
2017-07-10T05:39:26.070Z,1148
2017-07-10T05:40:26.098Z,1152
2017-07-10T05:41:26.150Z,1156
2017-07-10T05:42:26.183Z,1140
2017-07-10T05:43:26.230Z,1084
2017-07-10T05:44:26.272Z,1024
2017-07-10T05:45:26.310Z,960
2017-07-10T05:46:26.358Z,940
2017-07-10T05:47:26.389Z,952
2017-07-10T05:48:26.432Z,980
2017-07-10T05:49:26.484Z,1028
2017-07-10T05:50:26.518Z,1056
2017-07-10T05:51:26.555Z,1068
2017-07-10T05:52:26.609Z,1088
2017-07-10T05:53:26.640Z,1096
2017-07-10T05:54:26.691Z,1120
2017-07-10T05:55:26.724Z,1184
2017-07-10T05:56:26.774Z,1312
2017-07-10T05:57:26.814Z,1552
2017-07-10T05:58:26.846Z,1896
2017-07-10T05:59:26.891Z,2244
2017-07-10T06:00:26.941Z,2536
2017-07-10T06:01:26.969Z,2664
2017-07-10T06:02:27.012Z,2640
2017-07-10T06:03:27.064Z,2484
2017-07-10T06:04:27.096Z,2076
2017-07-10T06:05:27.173Z,1664
2017-07-10T06:06:27.186Z,1356
2017-07-10T06:07:27.219Z,1208
2017-07-10T06:08:27.273Z,1168
2017-07-10T06:09:27.346Z,1096
2017-07-10T06:10:27.354Z,1008
2017-07-10T06:11:27.385Z,1048
2017-07-10T06:12:27.432Z,1604
2017-07-10T06:13:27.479Z,2820
2017-07-10T06:14:27.515Z,3964
2017-07-10T06:15:27.550Z,4672
2017-07-10T06:16:27.598Z,4984
2017-07-10T06:17:27.634Z,5572
2017-07-10T06:18:27.688Z,6248
2017-07-10T06:19:27.725Z,6024
2017-07-10T06:20:27.757Z,5660
2017-07-10T06:21:27.798Z,5424
2017-07-10T06:22:27.852Z,5296
2017-07-10T06:23:27.879Z,5652
2017-07-10T06:24:27.932Z,3888
2017-07-10T06:25:27.980Z,2800
2017-07-10T06:26:28.008Z,2320
2017-07-10T06:27:28.048Z,1952
2017-07-10T06:28:28.089Z,1836
2017-07-10T06:29:28.137Z,1664
2017-07-10T06:30:28.182Z,1344
2017-07-10T06:31:28.226Z,1192
2017-07-10T06:32:28.257Z,1048
2017-07-10T06:33:28.311Z,988
2017-07-10T06:34:28.336Z,904
2017-07-10T06:35:28.390Z,848
2017-07-10T06:36:28.423Z,812
2017-07-10T06:37:28.476Z,788
2017-07-10T06:38:28.517Z,780
2017-07-10T06:39:28.545Z,784
2017-07-10T06:40:28.589Z,772
2017-07-10T06:41:28.628Z,728
2017-07-10T06:42:28.682Z,628
2017-07-10T06:43:28.723Z,612
2017-07-10T06:44:28.760Z,748
2017-07-10T06:45:28.796Z,972
2017-07-10T06:46:28.871Z,1100
2017-07-10T06:47:28.889Z,1128
2017-07-10T06:48:28.930Z,1104
2017-07-10T06:49:28.960Z,984
2017-07-10T06:50:29.013Z,880
2017-07-10T06:51:29.053Z,856
2017-07-10T06:52:29.083Z,868
2017-07-10T06:53:29.136Z,856
2017-07-10T06:54:29.168Z,820
2017-07-10T06:55:29.208Z,872
2017-07-10T06:56:29.295Z,868
2017-07-10T06:57:29.296Z,848
2017-07-10T06:58:29.333Z,936
2017-07-10T06:59:29.381Z,1152
2017-07-10T07:00:29.432Z,1416
2017-07-10T07:01:29.453Z,1624
2017-07-10T07:02:29.506Z,1748
2017-07-10T07:03:29.591Z,1724
2017-07-10T07:04:29.584Z,1592
2017-07-10T07:05:29.634Z,1372
2017-07-10T07:06:29.679Z,1064
2017-07-10T07:07:29.710Z,784
2017-07-10T07:08:29.972Z,624
2017-07-10T07:09:29.783Z,672
2017-07-10T07:10:29.840Z,640
2017-07-10T07:11:29.863Z,748
2017-07-10T07:12:29.915Z,856
2017-07-10T07:13:29.989Z,904
2017-07-10T07:14:29.985Z,884
2017-07-10T07:15:30.033Z,916
2017-07-10T07:16:30.081Z,1044
2017-07-10T07:17:30.113Z,1268
2017-07-10T07:18:30.161Z,1556
2017-07-10T07:19:30.194Z,1680
2017-07-10T07:20:30.243Z,1716
2017-07-10T07:21:30.284Z,1740
2017-07-10T07:22:30.326Z,1800
2017-07-10T07:23:30.366Z,1960
2017-07-10T07:24:30.407Z,2168
2017-07-10T07:25:30.448Z,2436
2017-07-10T07:26:30.489Z,2556
2017-07-10T07:27:30.534Z,2468
2017-07-10T07:28:30.562Z,2424
2017-07-10T07:29:30.614Z,2352
2017-07-10T07:30:30.656Z,2388
2017-07-10T07:31:30.694Z,2452
2017-07-10T07:32:30.726Z,2568
2017-07-10T07:33:30.776Z,2928
2017-07-10T07:34:30.811Z,3176
2017-07-10T07:35:30.861Z,3432
2017-07-10T07:36:30.890Z,3848
2017-07-10T07:37:30.944Z,4416
2017-07-10T07:38:30.973Z,4984
2017-07-10T07:39:31.023Z,5616
2017-07-10T07:40:31.069Z,6072
2017-07-10T07:41:31.109Z,6652
2017-07-10T07:42:31.144Z,7280
2017-07-10T07:43:31.183Z,8248
2017-07-10T07:44:31.235Z,8908
2017-07-10T07:45:31.274Z,10592
2017-07-10T07:46:31.321Z,11288
2017-07-10T07:47:31.348Z,11056
2017-07-10T07:48:31.404Z,8616
2017-07-10T07:49:31.432Z,7404
2017-07-10T07:50:31.473Z,8540
2017-07-10T07:51:31.514Z,11916
2017-07-10T07:52:31.558Z,14596
2017-07-10T07:53:31.929Z,13024
2017-07-10T07:54:31.644Z,12228
2017-07-10T07:55:31.692Z,11912
2017-07-10T07:56:31.736Z,15492
2017-07-10T07:57:31.770Z,13132
2017-07-10T07:58:31.823Z,11280
2017-07-10T07:59:31.868Z,10212
2017-07-10T08:00:31.904Z,10212
2017-07-10T08:01:31.944Z,13384
2017-07-10T08:02:31.994Z,10780
2017-07-10T08:03:32.027Z,10968
2017-07-10T08:04:32.071Z,11980
2017-07-10T08:05:32.122Z,14000
2017-07-10T08:06:32.157Z,17024
2017-07-10T08:07:32.211Z,14640
2017-07-10T08:08:32.252Z,14256
2017-07-10T08:09:32.286Z,21440
2017-07-10T08:10:32.338Z,12436
2017-07-10T08:11:32.373Z,10928
2017-07-10T08:12:32.429Z,10196
2017-07-10T08:13:32.472Z,11096
2017-07-10T08:14:32.503Z,11488
2017-07-10T08:15:32.556Z,11092
2017-07-10T08:16:32.922Z,10888
2017-07-10T08:17:32.647Z,10484
2017-07-10T08:18:32.688Z,9908
2017-07-10T08:19:32.733Z,9248
2017-07-10T08:20:32.775Z,8892
2017-07-10T08:21:32.810Z,8024
2017-07-10T08:22:32.865Z,8144
2017-07-10T08:23:32.934Z,9996
2017-07-10T08:24:32.940Z,10204
2017-07-10T08:25:32.983Z,10224
2017-07-10T08:26:33.040Z,11924
2017-07-10T08:27:33.081Z,11160
2017-07-10T08:28:33.125Z,11924
2017-07-10T08:29:33.160Z,14352
2017-07-10T08:30:33.215Z,17088
2017-07-10T08:31:33.256Z,17312
2017-07-10T08:32:33.297Z,19488
2017-07-10T08:33:33.347Z,21728
2017-07-10T08:34:33.697Z,25696
2017-07-10T08:35:33.431Z,31744
2017-07-10T08:36:33.478Z,35072
2017-07-10T08:37:33.511Z,46880
2017-07-10T08:38:33.566Z,31488
2017-07-10T08:39:33.601Z,32032
2017-07-10T08:40:33.647Z,32480
2017-07-10T08:41:33.704Z,39200
2017-07-10T08:42:33.737Z,32384
2017-07-10T08:43:33.796Z,26528
2017-07-10T08:44:33.830Z,24864
2017-07-10T08:45:33.886Z,21344
2017-07-10T08:46:33.919Z,19680
2017-07-10T08:47:33.970Z,18848
2017-07-10T08:48:34.024Z,18112
2017-07-10T08:49:34.068Z,17184
2017-07-10T08:50:34.103Z,16016
2017-07-10T08:51:34.150Z,15124
2017-07-10T08:52:34.205Z,14584
2017-07-10T08:53:34.555Z,14328
2017-07-10T08:54:34.300Z,13960
2017-07-10T08:55:34.342Z,13400
2017-07-10T08:56:34.389Z,12964
2017-07-10T08:57:34.422Z,12676
2017-07-10T08:58:34.477Z,12556
2017-07-10T08:59:34.518Z,12580
2017-07-10T09:00:34.558Z,12636
2017-07-10T09:01:34.605Z,12764
2017-07-10T09:02:34.660Z,13100
2017-07-10T09:03:34.707Z,13768
2017-07-10T09:04:34.741Z,14232
2017-07-10T09:05:34.798Z,14764
2017-07-10T09:06:34.843Z,15300
2017-07-10T09:07:34.876Z,16128
2017-07-10T09:08:34.929Z,17600
2017-07-10T09:09:34.965Z,19296
2017-07-10T09:10:35.023Z,25472
2017-07-10T09:11:35.065Z,28000
2017-07-10T09:12:35.101Z,27456
2017-07-10T09:13:35.155Z,28832
2017-07-10T09:14:35.202Z,28384
2017-07-10T09:15:35.247Z,28192
2017-07-10T09:16:35.295Z,40480
2017-07-10T09:17:35.338Z,38688
2017-07-10T09:18:35.383Z,31648
2017-07-10T09:19:35.419Z,29120
2017-07-10T09:20:35.475Z,27232
2017-07-10T09:21:35.523Z,30272
2017-07-10T09:22:35.556Z,35072
2017-07-10T09:23:35.614Z,52992
2017-07-10T09:24:35.663Z,72992
2017-07-10T09:25:35.707Z,61120
2017-07-10T09:26:35.744Z,44320
2017-07-10T09:27:35.801Z,50848
2017-07-10T09:28:35.851Z,33088
2017-07-10T09:29:35.887Z,31072
2017-07-10T09:30:35.944Z,65120
2017-07-10T09:31:35.989Z,74464
2017-07-10T09:32:36.031Z,86560
2017-07-10T09:33:36.083Z,54784
2017-07-10T09:34:36.146Z,42304
2017-07-10T09:35:36.187Z,55808
2017-07-10T09:36:36.226Z,53632
2017-07-10T09:37:36.282Z,56704
2017-07-10T09:38:36.330Z,54528
2017-07-10T09:39:36.372Z,60256
2017-07-10T09:40:36.434Z,96032
2017-07-10T09:41:36.470Z,109056
2017-07-10T09:42:36.534Z,102816
2017-07-10T09:43:36.569Z,92096
2017-07-10T09:44:36.627Z,89568
2017-07-10T09:45:36.685Z,87808
2017-07-10T09:46:36.743Z,82816
2017-07-10T09:47:36.779Z,88896
2017-07-10T09:48:36.834Z,73984
2017-07-10T09:49:36.890Z,83072
2017-07-10T09:50:36.953Z,108608
2017-07-10T09:51:37.004Z,113088
2017-07-10T09:52:37.062Z,113728
2017-07-10T09:53:37.106Z,98016
2017-07-10T09:54:37.168Z,112896
2017-07-10T09:55:37.228Z,111488
2017-07-10T09:56:37.283Z,112416
2017-07-10T09:57:37.345Z,115200
2017-07-10T09:58:37.385Z,116000
2017-07-10T09:59:37.451Z,113792
2017-07-10T10:00:37.869Z,114016
2017-07-10T10:01:37.567Z,85568
2017-07-10T10:02:37.622Z,93824
2017-07-10T10:03:37.673Z,96832
2017-07-10T10:04:37.726Z,93952
2017-07-10T10:05:37.789Z,83872
2017-07-10T10:06:37.910Z,72288
2017-07-10T10:07:37.899Z,57600
2017-07-10T10:08:37.969Z,49760
2017-07-10T10:09:38.015Z,50400
2017-07-10T10:10:38.084Z,44992
2017-07-10T10:11:38.139Z,47264
2017-07-10T10:12:38.197Z,39584
2017-07-10T10:13:38.253Z,30976
2017-07-10T10:14:38.308Z,35200
2017-07-10T10:15:38.354Z,36384
2017-07-10T10:16:38.421Z,55008
2017-07-10T10:17:38.462Z,48128
2017-07-10T10:18:38.530Z,51200
2017-07-10T10:19:38.582Z,43648
2017-07-10T10:20:38.629Z,84928
2017-07-10T10:21:38.695Z,94816
2017-07-10T10:22:38.737Z,99456
2017-07-10T10:23:38.803Z,65312
2017-07-10T10:24:38.860Z,75520
2017-07-10T10:25:38.912Z,118816
2017-07-10T10:26:38.957Z,79200
2017-07-10T10:27:39.023Z,109472
2017-07-10T10:28:39.077Z,106432
2017-07-10T10:29:39.133Z,100480
2017-07-10T10:30:39.179Z,99104
2017-07-10T10:31:39.244Z,99584
2017-07-10T10:32:39.301Z,101440
2017-07-10T10:33:39.344Z,103488
2017-07-10T10:34:39.415Z,102176
2017-07-10T10:35:39.470Z,88000
2017-07-10T10:36:39.528Z,102624
2017-07-10T10:37:39.579Z,100224
2017-07-10T10:38:39.634Z,96800
2017-07-10T10:39:39.711Z,96032
2017-07-10T10:40:40.076Z,97888
2017-07-10T10:41:39.816Z,103520
2017-07-10T10:42:39.865Z,105696
2017-07-10T10:43:39.934Z,109184
2017-07-10T10:44:39.983Z,107296
2017-07-10T10:45:40.051Z,105728
2017-07-10T10:46:40.106Z,105888
2017-07-10T10:47:40.156Z,18240
2017-07-10T10:48:40.228Z,99264
2017-07-10T10:49:40.278Z,28832
2017-07-10T10:50:40.332Z,108416
2017-07-10T10:51:40.403Z,21120
2017-07-10T10:52:40.474Z,16224
2017-07-10T10:53:40.503Z,14380
2017-07-10T10:54:40.574Z,92768
2017-07-10T10:55:40.633Z,106528
2017-07-10T10:56:40.686Z,107104
2017-07-10T10:57:40.737Z,112416
2017-07-10T10:58:40.785Z,22176
2017-07-10T10:59:40.845Z,113312
2017-07-10T11:00:40.902Z,36608
2017-07-10T11:01:40.958Z,20960
2017-07-10T11:02:41.021Z,17056
2017-07-10T11:03:41.068Z,15268
2017-07-10T11:04:41.123Z,36672
2017-07-10T11:05:41.186Z,71456
2017-07-10T11:06:41.248Z,27392
2017-07-10T11:07:41.284Z,64288
2017-07-10T11:08:41.674Z,80064
2017-07-10T11:09:41.396Z,48832
2017-07-10T11:10:41.448Z,21632
2017-07-10T11:11:41.501Z,17792
2017-07-10T11:12:41.557Z,22976
2017-07-10T11:13:41.619Z,19168
2017-07-10T11:14:41.662Z,15928
2017-07-10T11:15:41.717Z,15272
2017-07-10T11:16:41.777Z,12948
2017-07-10T11:17:41.821Z,11348
2017-07-10T11:18:42.187Z,11820
2017-07-10T11:19:41.921Z,9840
2017-07-10T11:20:41.976Z,9128
2017-07-10T11:21:42.026Z,8812
2017-07-10T11:22:42.077Z,8500
2017-07-10T11:23:42.130Z,8440
2017-07-10T11:24:42.199Z,8868
2017-07-10T11:25:42.246Z,10352
2017-07-10T11:26:42.280Z,11460
2017-07-10T11:27:42.348Z,12824
2017-07-10T11:28:42.380Z,12816
2017-07-10T11:29:42.751Z,12416
2017-07-10T11:30:42.477Z,13492
2017-07-10T11:31:42.550Z,14856
2017-07-10T11:32:42.576Z,15120
2017-07-10T11:33:42.626Z,14864
2017-07-10T11:34:42.673Z,14132
2017-07-10T11:35:42.722Z,13804
2017-07-10T11:36:42.774Z,15552
2017-07-10T11:37:43.139Z,18240
2017-07-10T11:38:42.869Z,19168
2017-07-10T11:39:42.937Z,19264
2017-07-10T11:40:42.987Z,18304
2017-07-10T11:41:43.020Z,17760
2017-07-10T11:42:43.083Z,16792
2017-07-10T11:43:43.114Z,16412
2017-07-10T11:44:43.163Z,16200
2017-07-10T11:45:43.209Z,16372
2017-07-10T11:46:43.258Z,17312
2017-07-10T11:47:43.307Z,17632
2017-07-10T11:48:43.371Z,18080
2017-07-10T11:49:43.428Z,18528
2017-07-10T11:50:43.451Z,17600
2017-07-10T11:51:43.513Z,16396
2017-07-10T11:52:43.560Z,15556
2017-07-10T11:53:43.596Z,15472
2017-07-10T11:54:43.646Z,15668
2017-07-10T11:55:43.707Z,15744
2017-07-10T11:56:43.746Z,15604
2017-07-10T11:57:43.803Z,15440
2017-07-10T11:58:43.840Z,15648
2017-07-10T11:59:43.902Z,16028
2017-07-10T12:00:43.955Z,16660
2017-07-10T12:01:43.995Z,17632
2017-07-10T12:02:44.373Z,18208
2017-07-10T12:03:44.083Z,18368
2017-07-10T12:04:44.127Z,17760
2017-07-10T12:05:44.179Z,17312
2017-07-10T12:06:44.237Z,16832
2017-07-10T12:07:44.288Z,16992
2017-07-10T12:08:44.323Z,16864
2017-07-10T12:09:44.383Z,17280
2017-07-10T12:10:44.422Z,17248
2017-07-10T12:11:44.481Z,16896
2017-07-10T12:12:44.530Z,16316
2017-07-10T12:13:44.565Z,16144
2017-07-10T12:14:44.625Z,16100
2017-07-10T12:15:44.675Z,16520
2017-07-10T12:16:44.726Z,16928
2017-07-10T12:17:44.773Z,15556
2017-07-10T12:18:44.819Z,14536
2017-07-10T12:19:44.866Z,13148
2017-07-10T12:20:44.919Z,11956
2017-07-10T12:21:44.966Z,10892
2017-07-10T12:22:45.009Z,9840
2017-07-10T12:23:45.062Z,8888
2017-07-10T12:24:45.102Z,8076
2017-07-10T12:25:45.146Z,7448
2017-07-10T12:26:45.204Z,6968
2017-07-10T12:27:45.238Z,6528
2017-07-10T12:28:45.622Z,6128
2017-07-10T12:29:45.348Z,5796
2017-07-10T12:30:45.385Z,5476
2017-07-10T12:31:45.442Z,5160
2017-07-10T12:32:45.488Z,4824
2017-07-10T12:33:45.525Z,4528
2017-07-10T12:34:45.571Z,4328
2017-07-10T12:35:45.631Z,4184
2017-07-10T12:36:45.677Z,4060
2017-07-10T12:37:45.730Z,3960
2017-07-10T12:38:45.771Z,3888
2017-07-10T12:39:45.807Z,3840
2017-07-10T12:40:45.856Z,3820
2017-07-10T12:41:45.898Z,3852
2017-07-10T12:42:45.949Z,3936
2017-07-10T12:43:46.004Z,4072
2017-07-10T12:44:46.038Z,4224
2017-07-10T12:45:46.094Z,4424
2017-07-10T12:46:46.143Z,4712
2017-07-10T12:47:46.191Z,5160
2017-07-10T12:48:46.225Z,5824
2017-07-10T12:49:46.275Z,6908
2017-07-10T12:50:46.330Z,8304
2017-07-10T12:51:46.376Z,9416
2017-07-10T12:52:46.419Z,10324
2017-07-10T12:53:46.467Z,10952
2017-07-10T12:54:46.513Z,11232
2017-07-10T12:55:46.548Z,11124
2017-07-10T12:56:46.604Z,10100
2017-07-10T12:57:46.641Z,9788
2017-07-10T12:58:46.697Z,8772
2017-07-10T12:59:46.749Z,8136
2017-07-10T13:00:46.792Z,7112
2017-07-10T13:01:46.827Z,6392
2017-07-10T13:02:46.873Z,6096
2017-07-10T13:03:46.931Z,5984
2017-07-10T13:04:46.975Z,6032
2017-07-10T13:05:47.026Z,6348
2017-07-10T13:06:47.057Z,6400
2017-07-10T13:07:47.102Z,5980
2017-07-10T13:08:47.160Z,5400
2017-07-10T13:09:47.208Z,4828
2017-07-10T13:10:47.242Z,4520
2017-07-10T13:11:47.290Z,4500
2017-07-10T13:12:47.335Z,4812
2017-07-10T13:13:47.393Z,5252
2017-07-10T13:14:47.427Z,5800
2017-07-10T13:15:47.486Z,5840
2017-07-10T13:16:47.520Z,5916
2017-07-10T13:17:47.577Z,6244
2017-07-10T13:18:47.615Z,6512
2017-07-10T13:19:47.670Z,7196
2017-07-10T13:20:47.717Z,7732
2017-07-10T13:21:47.751Z,7932
2017-07-10T13:22:47.808Z,8104
2017-07-10T13:23:47.851Z,8192
2017-07-10T13:24:47.897Z,7692
2017-07-10T13:25:47.935Z,7400
2017-07-10T13:26:47.983Z,7120
2017-07-10T13:27:48.033Z,6752
2017-07-10T13:28:48.076Z,6304
2017-07-10T13:29:48.130Z,5828